KBPI/BPI METAR and TAF weather

Enter ICAO airport designator
Station Type Date Time Source
KBPI METAR 2019/12/13 14:16 UTC NOAA

KBPI 131416Z AUTO 31015KT 6SM -SN OVC023 M05/M08 A3002 RMK AO2 SNB10 P0000 T10501078


Station Type Date Time Source
KBPI Decoded METAR 2019/12/13 14:16 UTC NOAA

BIG PINEY-MARBLETON AIRPORT, WY, United States (KBPI) 42-35N 110-06W 2117M
Dec 13, 2019 - 09:16 AM EST / 2019.12.13 1416 UTC
Wind: from the NW (310 degrees) at 17 MPH (15 KT):0
Visibility: 6 mile(s):0
Sky conditions: overcast
Weather: light snow
Precipitation last hour: A trace
Temperature: 23.0 F (-5.0 C)
Windchill: 8 F (-13 C):1
Dew Point: 18.0 F (-7.8 C)
Relative Humidity: 80%
Pressure (altimeter): 30.02 in. Hg (1016 hPa)
ob: KBPI 131416Z AUTO 31015KT 6SM -SN OVC023 M05/M08 A3002 RMK AO2 SNB10 P0000 T10501078
cycle: 14

Station Type Date Time Source
KBPI TAF 2019/12/13 12:34 UTC NOAA

TAF KBPI 131132Z 1312/1412 VRB06KT P6SM SCT040 BKN060
TEMPO 1312/1314 31010G16KT 3SM -SN SCT010 OVC025
FM131400 32012G18KT P6SM VCSH SCT015 OVC025
FM131800 32015G25KT P6SM SCT025 OVC120
FM140000 18009KT P6SM SCT040 OVC060
FM140400 06007KT 2SM -SN SCT010 BKN018

Example: see airport list